createdAt,value
2019-02-07T00:00:21.683Z,19.47
2019-02-07T00:02:50.082Z,20.50
2019-02-07T00:05:18.487Z,21.63
2019-02-07T00:07:46.863Z,21.07
2019-02-07T00:10:20.199Z,22.13
2019-02-07T00:12:48.580Z,20.57
2019-02-07T00:15:17.174Z,22.63
2019-02-07T00:17:45.557Z,20.10
2019-02-07T00:20:18.664Z,21.23
2019-02-07T00:22:47.119Z,20.10
2019-02-07T00:25:15.599Z,20.83
2019-02-07T00:27:43.980Z,19.47
2019-02-07T00:30:18.827Z,20.93
2019-02-07T00:32:47.254Z,20.63
2019-02-07T00:35:15.629Z,19.53
2019-02-07T00:37:44.031Z,18.50
2019-02-07T00:40:19.257Z,19.23
2019-02-07T00:42:47.965Z,16.60
2019-02-07T00:45:19.816Z,17.07
2019-02-07T00:47:48.362Z,17.60
2019-02-07T00:50:18.446Z,16.27
2019-02-07T00:52:46.860Z,14.50
2019-02-07T00:55:17.556Z,14.20
2019-02-07T00:57:46.004Z,14.33
2019-02-07T01:00:23.502Z,14.53
2019-02-07T01:02:51.903Z,15.63
2019-02-07T01:05:20.863Z,16.07
2019-02-07T01:07:49.339Z,15.10
2019-02-07T01:10:26.739Z,15.03
2019-02-07T01:12:55.130Z,16.10
2019-02-07T01:15:23.675Z,16.27
2019-02-07T01:17:52.048Z,15.70
2019-02-07T01:20:20.420Z,16.63
2019-02-07T01:22:48.818Z,17.70
2019-02-07T01:25:19.744Z,17.37
2019-02-07T01:27:48.139Z,17.30
2019-02-07T01:30:21.867Z,18.60
2019-02-07T01:32:50.267Z,18.07
2019-02-07T01:35:18.677Z,18.73
2019-02-07T01:37:47.100Z,18.20
2019-02-07T01:40:17.238Z,17.17
2019-02-07T01:42:45.615Z,17.30
2019-02-07T01:45:20.297Z,14.03
2019-02-07T01:47:49.333Z,15.67
2019-02-07T01:50:25.054Z,16.20
2019-02-07T01:52:53.462Z,13.77
2019-02-07T01:55:21.842Z,14.37
2019-02-07T01:57:50.241Z,14.30
2019-02-07T02:00:19.361Z,14.73
2019-02-07T02:02:47.823Z,14.57
2019-02-07T02:05:17.959Z,14.80
2019-02-07T02:07:46.725Z,10.93
2019-02-07T02:10:17.366Z,13.80
2019-02-07T02:12:45.747Z,13.47
2019-02-07T02:15:24.101Z,12.47
2019-02-07T02:17:46.199Z,13.93
2019-02-07T02:20:16.813Z,14.27
2019-02-07T02:22:45.319Z,10.23
2019-02-07T02:25:13.737Z,13.63
2019-02-07T02:27:42.146Z,13.57
2019-02-07T02:30:13.774Z,13.30
2019-02-07T02:32:42.147Z,12.33
2019-02-07T02:35:10.552Z,12.43
2019-02-07T02:37:39.255Z,12.43
2019-02-07T02:40:09.403Z,11.73
2019-02-07T02:42:37.795Z,10.73
2019-02-07T02:45:09.433Z,11.67
2019-02-07T02:47:37.806Z,11.63
2019-02-07T02:50:09.754Z,11.87
2019-02-07T02:52:40.304Z,10.77
2019-02-07T02:55:10.055Z,11.20
2019-02-07T02:57:38.445Z,11.00
2019-02-07T03:00:15.069Z,10.23
2019-02-07T03:03:01.335Z,11.27
2019-02-07T03:05:43.650Z,10.73
2019-02-07T03:08:30.095Z,10.33
2019-02-07T03:11:16.563Z,10.53
2019-02-07T03:13:55.322Z,10.40
2019-02-07T03:16:28.258Z,11.20
2019-02-07T03:19:16.953Z,11.07
2019-02-07T03:21:52.656Z,10.43
2019-02-07T03:24:28.404Z,10.43
2019-02-07T03:26:58.446Z,8.77
2019-02-07T03:29:28.454Z,9.13
2019-02-07T03:31:58.490Z,9.67
2019-02-07T03:34:28.507Z,9.60
2019-02-07T03:37:04.510Z,10.00
2019-02-07T03:39:43.323Z,9.17
2019-02-07T03:42:16.288Z,9.03
2019-02-07T03:44:52.082Z,9.53
2019-02-07T03:47:22.114Z,9.37
2019-02-07T03:49:52.133Z,10.53
2019-02-07T03:52:22.180Z,10.80
2019-02-07T03:54:52.215Z,10.30
2019-02-07T03:57:22.241Z,10.10
2019-02-07T04:00:03.991Z,9.73
2019-02-07T04:02:40.731Z,9.07
2019-02-07T04:05:11.002Z,9.20
2019-02-07T04:07:53.280Z,9.23
2019-02-07T04:10:26.261Z,9.10
2019-02-07T04:13:12.717Z,9.13
2019-02-07T04:15:51.482Z,8.93
2019-02-07T04:18:37.480Z,8.50
2019-02-07T04:21:19.366Z,9.30
2019-02-07T04:23:54.879Z,9.03
2019-02-07T04:26:40.106Z,9.67
2019-02-07T04:29:26.640Z,9.17
2019-02-07T04:32:14.883Z,8.77
2019-02-07T04:35:01.792Z,9.70
2019-02-07T04:37:31.811Z,9.47
2019-02-07T04:40:01.862Z,10.17
2019-02-07T04:42:47.191Z,10.67
2019-02-07T04:45:19.754Z,10.87
2019-02-07T04:47:52.527Z,11.13
2019-02-07T04:50:22.587Z,11.00
2019-02-07T04:53:01.563Z,11.00
2019-02-07T04:55:48.224Z,11.83
2019-02-07T04:58:27.495Z,11.17
2019-02-07T05:01:03.596Z,10.80
2019-02-07T05:03:33.641Z,11.30
2019-02-07T05:06:03.688Z,10.27
2019-02-07T05:08:33.707Z,11.20
2019-02-07T05:11:06.718Z,10.80
2019-02-07T05:13:54.717Z,10.40
2019-02-07T05:16:39.790Z,10.37
2019-02-07T05:19:17.041Z,9.73
2019-02-07T05:21:50.179Z,10.73
2019-02-07T05:24:23.079Z,9.20
2019-02-07T05:27:11.085Z,9.17
2019-02-07T05:29:49.876Z,10.13
2019-02-07T05:32:36.535Z,8.83
2019-02-07T05:35:27.674Z,8.17
2019-02-07T05:38:13.368Z,4.90
2019-02-07T05:40:46.295Z,3.70
2019-02-07T05:43:16.266Z,3.10
2019-02-07T05:45:52.164Z,3.53
2019-02-07T05:48:40.456Z,3.03
2019-02-07T05:51:28.304Z,4.47
2019-02-07T05:54:15.252Z,3.57
2019-02-07T05:56:48.269Z,4.50
2019-02-07T05:59:33.601Z,3.37
2019-02-07T06:02:03.972Z,4.50
2019-02-07T06:04:42.986Z,4.27
2019-02-07T06:07:21.878Z,5.07
2019-02-07T06:10:09.855Z,4.87
2019-02-07T06:12:39.840Z,5.57
2019-02-07T06:15:22.246Z,6.07
2019-02-07T06:17:58.002Z,5.27
2019-02-07T06:20:40.130Z,4.57
2019-02-07T06:23:19.305Z,5.00
2019-02-07T06:26:01.359Z,4.90
2019-02-07T06:28:34.251Z,4.37
2019-02-07T06:31:13.149Z,4.17
2019-02-07T06:33:43.207Z,4.43
2019-02-07T06:36:13.277Z,5.10
2019-02-07T06:38:59.610Z,6.50
2019-02-07T06:41:35.495Z,4.40
2019-02-07T06:44:14.609Z,4.40
2019-02-07T06:47:01.058Z,4.93
2019-02-07T06:49:34.227Z,4.93
2019-02-07T06:52:04.208Z,4.33
2019-02-07T06:54:37.197Z,4.50
2019-02-07T06:57:17.071Z,4.70
2019-02-07T06:59:55.973Z,5.37
2019-02-07T07:02:38.156Z,5.13
2019-02-07T07:05:18.706Z,4.37
2019-02-07T07:07:51.758Z,6.03
2019-02-07T07:10:30.772Z,4.97
2019-02-07T07:13:17.242Z,5.27
2019-02-07T07:15:56.530Z,5.50
2019-02-07T07:18:32.764Z,5.23
2019-02-07T07:21:12.034Z,5.87
2019-02-07T07:23:56.972Z,5.00
2019-02-07T07:26:27.028Z,4.80
2019-02-07T07:29:15.246Z,5.33
2019-02-07T07:31:48.231Z,4.37
2019-02-07T07:34:18.270Z,4.03
2019-02-07T07:36:48.306Z,5.10
2019-02-07T07:39:30.221Z,5.27
2019-02-07T07:42:18.161Z,5.23
2019-02-07T07:44:48.172Z,5.40
2019-02-07T07:47:36.160Z,5.27
2019-02-07T07:50:07.765Z,4.00
2019-02-07T07:52:37.824Z,5.77
2019-02-07T07:55:14.519Z,5.03
2019-02-07T07:57:56.587Z,4.17
2019-02-07T08:00:32.326Z,4.50
2019-02-07T08:03:14.511Z,4.00
2019-02-07T08:05:50.259Z,4.00
2019-02-07T08:08:32.286Z,4.97
2019-02-07T08:11:06.915Z,3.70
2019-02-07T08:13:42.863Z,4.57
2019-02-07T08:16:13.194Z,4.33
2019-02-07T08:18:45.904Z,4.23
2019-02-07T08:21:18.697Z,4.50
2019-02-07T08:24:03.907Z,3.57
2019-02-07T08:26:36.904Z,5.17
2019-02-07T08:29:06.922Z,3.47
2019-02-07T08:31:36.937Z,4.53
2019-02-07T08:34:09.529Z,4.23
2019-02-07T08:36:40.076Z,4.20
2019-02-07T08:39:14.846Z,4.07
2019-02-07T08:41:47.623Z,4.50
2019-02-07T08:44:17.633Z,5.07
2019-02-07T08:46:47.658Z,4.60
2019-02-07T08:49:20.807Z,4.13
2019-02-07T08:52:02.747Z,4.40
2019-02-07T08:54:49.174Z,4.90
2019-02-07T08:57:21.723Z,3.90
2019-02-07T09:00:08.591Z,3.47
2019-02-07T09:02:51.650Z,3.47
2019-02-07T09:05:34.282Z,3.83
2019-02-07T09:08:07.500Z,4.87
2019-02-07T09:10:37.550Z,4.00
2019-02-07T09:13:16.389Z,3.60
2019-02-07T09:15:46.403Z,4.63
2019-02-07T09:18:32.345Z,4.50
2019-02-07T09:21:14.339Z,4.07
2019-02-07T09:23:55.973Z,4.67
2019-02-07T09:26:37.937Z,3.97
2019-02-07T09:29:16.939Z,4.50
2019-02-07T09:32:05.050Z,4.47
2019-02-07T09:34:47.240Z,4.13
2019-02-07T09:37:22.836Z,5.00
2019-02-07T09:39:58.453Z,4.80
2019-02-07T09:42:37.670Z,4.60
2019-02-07T09:45:28.920Z,4.23
2019-02-07T09:48:01.818Z,4.43
2019-02-07T09:50:37.706Z,3.93
2019-02-07T09:53:23.698Z,3.87
2019-02-07T09:55:48.571Z,4.70
2019-02-07T09:58:24.426Z,5.20
2019-02-07T10:01:12.640Z,5.20
2019-02-07T10:03:59.199Z,5.07
2019-02-07T10:06:41.266Z,4.17
2019-02-07T10:09:27.502Z,3.77
2019-02-07T10:12:00.070Z,3.63
2019-02-07T10:14:35.894Z,3.30
2019-02-07T10:17:05.947Z,4.13
2019-02-07T10:19:44.959Z,5.00
2019-02-07T10:22:29.989Z,4.20
2019-02-07T10:25:16.273Z,5.43
2019-02-07T10:27:46.319Z,4.43
2019-02-07T10:30:32.822Z,4.53
2019-02-07T10:33:08.570Z,4.87
2019-02-07T10:35:55.016Z,5.40
2019-02-07T10:38:25.029Z,4.33
2019-02-07T10:41:11.200Z,5.37
2019-02-07T10:43:41.218Z,3.77
2019-02-07T10:46:27.498Z,4.00
2019-02-07T10:49:00.405Z,4.00
2019-02-07T10:51:38.919Z,3.60
2019-02-07T10:54:26.607Z,4.03
2019-02-07T10:56:59.651Z,3.93
2019-02-07T10:59:32.507Z,4.67
2019-02-07T11:02:02.557Z,3.87
2019-02-07T11:04:38.631Z,4.10
2019-02-07T11:07:25.125Z,3.50
2019-02-07T11:10:10.499Z,3.30
2019-02-07T11:12:46.293Z,3.07
2019-02-07T11:15:25.728Z,3.43
2019-02-07T11:18:04.643Z,3.80
2019-02-07T11:20:50.650Z,4.03
2019-02-07T11:23:20.879Z,3.60
2019-02-07T11:26:05.970Z,4.70
2019-02-07T11:28:41.991Z,3.57
2019-02-07T11:31:17.498Z,3.37
2019-02-07T11:33:47.599Z,3.73
2019-02-07T11:36:32.792Z,3.93
2019-02-07T11:39:08.755Z,3.00
2019-02-07T11:41:54.154Z,3.67
2019-02-07T11:44:26.974Z,3.83
2019-02-07T11:47:05.207Z,3.43
2019-02-07T11:49:28.698Z,3.90
2019-02-07T11:52:07.665Z,4.77
2019-02-07T11:54:55.942Z,4.23
2019-02-07T11:57:37.742Z,4.60
2019-02-07T12:00:19.696Z,3.13
2019-02-07T12:02:52.559Z,3.13
2019-02-07T12:05:28.570Z,2.87
2019-02-07T12:08:01.821Z,2.80
2019-02-07T12:10:37.672Z,3.00
2019-02-07T12:13:10.723Z,3.80
2019-02-07T12:15:46.474Z,3.37
2019-02-07T12:18:16.823Z,2.97
2019-02-07T12:20:46.861Z,3.37
2019-02-07T12:23:22.959Z,2.70
2019-02-07T12:25:55.703Z,2.90
2019-02-07T12:28:39.027Z,2.60
2019-02-07T12:31:12.222Z,2.47
2019-02-07T12:33:48.406Z,3.63
2019-02-07T12:36:30.663Z,2.77
2019-02-07T12:39:05.700Z,2.87
2019-02-07T12:41:41.172Z,3.07
2019-02-07T12:44:17.142Z,4.20
2019-02-07T12:46:47.181Z,4.37
2019-02-07T12:49:29.236Z,5.03
2019-02-07T12:52:04.326Z,4.03
2019-02-07T12:54:34.337Z,4.10
2019-02-07T12:57:10.067Z,4.87
2019-02-07T12:59:43.497Z,3.80
2019-02-07T13:02:29.927Z,4.27
2019-02-07T13:04:59.948Z,3.63
2019-02-07T13:07:38.586Z,4.57
2019-02-07T13:10:11.521Z,2.70
2019-02-07T13:12:41.593Z,3.23
2019-02-07T13:15:11.987Z,4.10
2019-02-07T13:17:59.980Z,3.77
2019-02-07T13:20:46.163Z,3.37
2019-02-07T13:23:32.864Z,3.53
2019-02-07T13:26:02.844Z,4.07
2019-02-07T13:28:35.626Z,6.43
2019-02-07T13:31:08.406Z,5.70
2019-02-07T13:33:54.798Z,4.90
2019-02-07T13:36:24.827Z,3.13
2019-02-07T13:39:09.891Z,4.90
2019-02-07T13:41:39.941Z,8.43
2019-02-07T13:44:25.231Z,3.43
2019-02-07T13:47:04.273Z,4.30
2019-02-07T13:49:52.012Z,3.70
2019-02-07T13:52:20.447Z,3.70
2019-02-07T13:55:02.348Z,2.93
2019-02-07T13:57:32.366Z,3.30
2019-02-07T14:00:05.019Z,2.90
2019-02-07T14:02:41.336Z,2.97
2019-02-07T14:05:28.028Z,2.47
2019-02-07T14:08:10.330Z,3.27
2019-02-07T14:10:49.724Z,3.30
2019-02-07T14:13:25.646Z,3.20
2019-02-07T14:16:04.701Z,2.90
2019-02-07T14:18:34.751Z,3.20
2019-02-07T14:21:10.963Z,3.03
2019-02-07T14:23:57.540Z,3.53
2019-02-07T14:26:27.582Z,3.33
2019-02-07T14:28:57.905Z,3.40
2019-02-07T14:31:27.949Z,3.10
2019-02-07T14:33:57.992Z,3.63
2019-02-07T14:36:45.605Z,2.97
2019-02-07T14:39:18.516Z,3.57
2019-02-07T14:42:03.831Z,3.10
2019-02-07T14:44:33.819Z,3.63
2019-02-07T14:47:02.265Z,3.37
2019-02-07T14:49:30.671Z,3.97
2019-02-07T14:51:59.043Z,3.97
2019-02-07T14:54:27.444Z,3.67
2019-02-07T14:56:55.836Z,3.70
2019-02-07T14:59:24.251Z,3.87
2019-02-07T15:01:52.680Z,3.40
2019-02-07T15:04:21.113Z,4.60
2019-02-07T15:06:49.707Z,3.33
2019-02-07T15:09:18.107Z,3.27
2019-02-07T15:11:46.484Z,3.73
2019-02-07T15:14:14.863Z,4.20
2019-02-07T15:16:44.350Z,4.27
2019-02-07T15:19:12.717Z,3.90
2019-02-07T15:21:41.124Z,4.07
2019-02-07T15:24:09.697Z,4.60
2019-02-07T15:26:38.102Z,3.87
2019-02-07T15:29:06.476Z,4.40
2019-02-07T15:31:34.939Z,3.47
2019-02-07T15:34:03.382Z,4.03
2019-02-07T15:36:31.791Z,3.90
2019-02-07T15:39:00.210Z,3.87
2019-02-07T15:41:28.585Z,4.17
2019-02-07T15:43:56.992Z,5.00
2019-02-07T15:46:25.380Z,3.90
2019-02-07T15:48:53.765Z,3.47
2019-02-07T15:51:22.182Z,4.33
2019-02-07T15:53:50.587Z,3.80
2019-02-07T15:56:19.272Z,4.27
2019-02-07T15:58:49.313Z,4.17
2019-02-07T16:01:21.972Z,3.80
2019-02-07T16:04:03.878Z,3.80
2019-02-07T16:06:32.277Z,4.13
2019-02-07T16:09:01.001Z,4.50
2019-02-07T16:11:29.444Z,4.43
2019-02-07T16:13:57.850Z,4.47
2019-02-07T16:16:26.407Z,4.60
2019-02-07T16:18:54.826Z,3.77
2019-02-07T16:21:23.205Z,4.10
2019-02-07T16:23:51.884Z,3.70
2019-02-07T16:26:20.293Z,3.20
2019-02-07T16:28:48.668Z,4.30
2019-02-07T16:31:17.090Z,3.33
2019-02-07T16:33:45.532Z,5.30
2019-02-07T16:36:13.950Z,4.63
2019-02-07T16:38:42.353Z,3.83
2019-02-07T16:41:11.084Z,3.97
2019-02-07T16:43:39.481Z,4.00
2019-02-07T16:46:07.886Z,5.67
2019-02-07T16:48:36.312Z,3.90
2019-02-07T16:51:05.189Z,4.87
2019-02-07T16:53:33.594Z,3.93
2019-02-07T16:56:02.480Z,4.77
2019-02-07T16:58:30.882Z,4.43
2019-02-07T17:00:59.251Z,4.10
2019-02-07T17:03:27.669Z,5.23
2019-02-07T17:05:56.072Z,4.20
2019-02-07T17:08:24.451Z,4.60
2019-02-07T17:10:52.864Z,5.50
2019-02-07T17:13:21.498Z,4.93
2019-02-07T17:15:49.890Z,4.87
2019-02-07T17:18:18.294Z,5.33
2019-02-07T17:20:46.737Z,4.00
2019-02-07T17:23:15.143Z,3.93
2019-02-07T17:25:43.566Z,4.37
2019-02-07T17:28:12.277Z,4.73
2019-02-07T17:30:40.688Z,3.63
2019-02-07T17:33:09.166Z,4.13
2019-02-07T17:35:37.574Z,4.40
2019-02-07T17:38:05.974Z,4.13
2019-02-07T17:40:34.373Z,3.93
2019-02-07T17:43:02.802Z,4.07
2019-02-07T17:45:32.148Z,4.03
2019-02-07T17:48:00.529Z,4.40
2019-02-07T17:50:39.538Z,4.07
2019-02-07T17:53:12.576Z,4.37
2019-02-07T17:55:40.975Z,3.70
2019-02-07T17:58:10.540Z,4.57
2019-02-07T18:00:51.986Z,4.50
2019-02-07T18:03:20.362Z,4.10
2019-02-07T18:05:48.772Z,3.63
2019-02-07T18:08:17.147Z,3.77
2019-02-07T18:10:45.895Z,3.27
2019-02-07T18:13:14.262Z,3.80
2019-02-07T18:15:42.663Z,3.93
2019-02-07T18:18:11.095Z,4.33
2019-02-07T18:20:39.551Z,6.03
2019-02-07T18:23:08.001Z,6.33
2019-02-07T18:25:36.412Z,3.90
2019-02-07T18:28:05.247Z,4.10
2019-02-07T18:30:33.680Z,4.00
2019-02-07T18:33:02.079Z,3.47
2019-02-07T18:35:30.466Z,3.60
2019-02-07T18:37:58.880Z,3.97
2019-02-07T18:40:31.566Z,4.73
2019-02-07T18:43:00.374Z,4.33
2019-02-07T18:45:28.751Z,4.30
2019-02-07T18:47:57.209Z,4.80
2019-02-07T18:50:34.175Z,4.83
2019-02-07T18:53:02.623Z,4.40
2019-02-07T18:55:32.729Z,4.23
2019-02-07T18:58:01.504Z,4.57
2019-02-07T19:00:37.968Z,4.13
2019-02-07T19:03:07.767Z,4.57
2019-02-07T19:05:36.510Z,5.17
2019-02-07T19:08:05.499Z,4.17
2019-02-07T19:10:33.893Z,4.10
2019-02-07T19:13:02.404Z,4.73
2019-02-07T19:15:46.247Z,4.10
2019-02-07T19:18:14.725Z,4.87
2019-02-07T19:20:43.115Z,4.23
2019-02-07T19:23:11.523Z,4.57
2019-02-07T19:25:40.212Z,3.80
2019-02-07T19:28:08.641Z,3.73
2019-02-07T19:30:37.110Z,3.90
2019-02-07T19:33:05.515Z,3.83
2019-02-07T19:35:33.920Z,3.90
2019-02-07T19:38:02.314Z,5.10
2019-02-07T19:40:30.726Z,4.00
2019-02-07T19:42:59.421Z,5.00
2019-02-07T19:45:28.656Z,5.23
2019-02-07T19:47:57.030Z,4.20
2019-02-07T19:50:26.662Z,4.40
2019-02-07T19:52:55.075Z,5.07
2019-02-07T19:55:26.270Z,4.50
2019-02-07T19:57:54.957Z,4.57
2019-02-07T20:00:25.691Z,4.50
2019-02-07T20:02:54.134Z,4.23
2019-02-07T20:05:22.547Z,4.30
2019-02-07T20:07:50.922Z,3.40
2019-02-07T20:10:21.421Z,4.93
2019-02-07T20:12:49.891Z,4.20
2019-02-07T20:15:21.284Z,4.00
2019-02-07T20:17:49.820Z,4.03
2019-02-07T20:20:18.312Z,4.10
2019-02-07T20:22:48.205Z,4.50
2019-02-07T20:25:18.543Z,3.50
2019-02-07T20:27:46.909Z,4.50
2019-02-07T20:30:21.631Z,3.83
2019-02-07T20:32:50.018Z,4.97
2019-02-07T20:35:18.587Z,4.70
2019-02-07T20:37:46.961Z,4.00
2019-02-07T20:40:18.111Z,4.20
2019-02-07T20:42:47.130Z,4.57
2019-02-07T20:45:15.786Z,4.40
2019-02-07T20:47:44.502Z,5.63
2019-02-07T20:50:16.122Z,5.60
2019-02-07T20:52:44.542Z,4.90
2019-02-07T20:55:13.386Z,4.77
2019-02-07T20:57:41.793Z,4.97
2019-02-07T21:00:25.045Z,5.67
2019-02-07T21:02:53.446Z,4.67
2019-02-07T21:05:21.915Z,4.40
2019-02-07T21:07:50.324Z,5.03
2019-02-07T21:10:24.185Z,4.93
2019-02-07T21:12:52.627Z,5.07
2019-02-07T21:15:21.029Z,4.07
2019-02-07T21:17:49.446Z,4.23
2019-02-07T21:20:25.938Z,4.17
2019-02-07T21:22:55.257Z,4.07
2019-02-07T21:25:29.057Z,3.87
2019-02-07T21:27:57.419Z,3.80
2019-02-07T21:30:29.095Z,4.40
2019-02-07T21:32:57.483Z,3.77
2019-02-07T21:35:26.264Z,4.70
2019-02-07T21:37:54.669Z,5.30
2019-02-07T21:40:27.802Z,4.60
2019-02-07T21:42:57.058Z,3.90
2019-02-07T21:45:25.435Z,4.27
2019-02-07T21:47:54.380Z,4.20
2019-02-07T21:50:25.546Z,4.80
2019-02-07T21:52:53.949Z,4.20
2019-02-07T21:55:24.596Z,4.00
2019-02-07T21:57:53.000Z,4.57
2019-02-07T22:00:29.977Z,4.23
2019-02-07T22:02:58.351Z,4.93
2019-02-07T22:05:27.071Z,4.30
2019-02-07T22:07:55.458Z,4.20
2019-02-07T22:10:23.840Z,4.43
2019-02-07T22:12:52.322Z,4.60
2019-02-07T22:15:23.334Z,4.77
2019-02-07T22:17:51.732Z,4.07
2019-02-07T22:20:26.980Z,4.53
2019-02-07T22:22:55.917Z,5.33
2019-02-07T22:25:24.364Z,4.17
2019-02-07T22:27:53.034Z,4.63
2019-02-07T22:30:27.866Z,4.57
2019-02-07T22:32:56.347Z,4.27
2019-02-07T22:35:24.784Z,4.93
2019-02-07T22:37:53.171Z,4.33
2019-02-07T22:40:23.117Z,3.60
2019-02-07T22:42:51.503Z,4.17
2019-02-07T22:45:21.541Z,3.80
2019-02-07T22:47:50.013Z,3.80
2019-02-07T22:50:23.230Z,3.70
2019-02-07T22:52:56.740Z,3.23
2019-02-07T22:55:21.654Z,4.03
2019-02-07T22:57:50.086Z,3.83
2019-02-07T23:00:38.259Z,3.83
2019-02-07T23:03:11.787Z,3.33
2019-02-07T23:05:40.154Z,3.60
2019-02-07T23:08:08.554Z,3.90
2019-02-07T23:10:36.939Z,3.57
2019-02-07T23:13:05.516Z,4.33
2019-02-07T23:15:34.811Z,3.27
2019-02-07T23:18:03.212Z,3.17
2019-02-07T23:20:31.588Z,4.37
2019-02-07T23:23:05.358Z,3.37
2019-02-07T23:25:30.048Z,3.20
2019-02-07T23:27:58.743Z,3.60
2019-02-07T23:30:27.152Z,3.97
2019-02-07T23:32:55.531Z,3.93
2019-02-07T23:35:23.934Z,3.73
2019-02-07T23:37:52.305Z,4.17
2019-02-07T23:40:21.439Z,4.40
2019-02-07T23:42:49.835Z,3.10
2019-02-07T23:45:19.997Z,3.87
2019-02-07T23:47:48.470Z,3.10
2019-02-07T23:50:16.922Z,3.73
2019-02-07T23:52:45.310Z,3.73
2019-02-07T23:55:14.643Z,3.17
2019-02-07T23:57:43.105Z,2.73
